Time;durP1;ratioP1;P1;durP2;ratioP2;P2;SDS_P1;SDS_P2;PMS_P1;PMS_P2;Temp;Humidity;BMP_temperature;BMP_pressure;BME280_temperature;BME280_humidity;BME280_pressure;Samples;Min_cycle;Max_cycle;Signal;HPM_P1;HPM_P2
2022/05/27 00:00:15;;;;;;;7.50;3.75;;;;;;;9.91;100.00;96122.31;5024289;28;20089;-73
2022/05/27 00:03:00;;;;;;;7.43;3.88;;;;;;;9.89;100.00;96114.69;5013530;28;20041;-73
2022/05/27 00:05:26;;;;;;;5.82;3.53;;;;;;;9.95;100.00;96123.41;5028388;28;20041;-73
2022/05/27 00:07:51;;;;;;;8.05;4.70;;;;;;;9.87;100.00;96111.53;5028366;28;20614;-73
2022/05/27 00:10:17;;;;;;;9.18;3.85;;;;;;;9.80;100.00;96116.97;5026223;28;20041;-73
2022/05/27 00:12:42;;;;;;;8.27;4.22;;;;;;;9.75;100.00;96114.28;5028811;28;20049;-73
2022/05/27 00:15:08;;;;;;;6.88;3.90;;;;;;;9.68;100.00;96105.81;5029386;28;20041;-73
2022/05/27 00:17:34;;;;;;;6.80;3.80;;;;;;;9.61;100.00;96097.31;5029288;28;20037;-73
2022/05/27 00:19:59;;;;;;;6.47;4.30;;;;;;;9.58;100.00;96100.47;5025023;28;20403;-73
2022/05/27 00:22:25;;;;;;;8.95;4.07;;;;;;;9.54;100.00;96106.22;5028337;28;20407;-73
2022/05/27 00:24:50;;;;;;;7.47;3.67;;;;;;;9.51;100.00;96104.09;5029222;28;20045;-73
2022/05/27 00:27:16;;;;;;;7.80;4.05;;;;;;;9.49;100.00;96089.59;5028403;28;20045;-72
2022/05/27 00:29:41;;;;;;;8.80;3.70;;;;;;;9.52;100.00;96100.41;5023737;28;20499;-73
2022/05/27 00:32:07;;;;;;;6.95;4.80;;;;;;;9.53;100.00;96094.09;5013187;28;20138;-74
2022/05/27 00:34:33;;;;;;;8.38;3.63;;;;;;;9.52;100.00;96095.16;5028250;28;20041;-73
2022/05/27 00:37:03;;;;;;;8.07;3.90;;;;;;;9.46;100.00;96088.25;5029349;28;20069;-74
2022/05/27 00:39:28;;;;;;;8.05;3.80;;;;;;;9.47;100.00;96081.97;5020753;28;20037;-73
2022/05/27 00:41:54;;;;;;;6.53;3.70;;;;;;;9.53;100.00;96086.22;5028286;28;20539;-74
2022/05/27 00:44:19;;;;;;;8.73;3.60;;;;;;;9.50;100.00;96073.59;5028068;28;20482;-73
2022/05/27 00:46:46;;;;;;;10.85;4.05;;;;;;;9.45;100.00;96078.81;5027999;28;20602;-72
2022/05/27 00:49:21;;;;;;;6.40;3.50;;;;;;;9.44;100.00;96077.22;5013888;28;20048;-73
2022/05/27 00:51:58;;;;;;;6.65;3.80;;;;;;;9.48;100.00;96070.44;5029044;28;20092;-74
2022/05/27 00:54:25;;;;;;;6.50;3.67;;;;;;;9.48;100.00;96075.69;5028279;28;20073;-73
2022/05/27 00:56:55;;;;;;;5.60;3.67;;;;;;;9.44;100.00;96073.78;5023520;28;20618;-73
2022/05/27 00:59:27;;;;;;;7.80;4.25;;;;;;;9.40;100.00;96070.88;5021370;28;20500;-75
2022/05/27 01:01:53;;;;;;;7.38;4.07;;;;;;;9.43;100.00;96075.63;5024548;28;20584;-75
2022/05/27 01:04:20;;;;;;;6.72;4.07;;;;;;;9.41;100.00;96076.91;5028560;28;20041;-75
2022/05/27 01:06:46;;;;;;;7.25;3.85;;;;;;;9.38;100.00;96072.97;5028685;28;20049;-74
2022/05/27 01:09:13;;;;;;;6.90;3.70;;;;;;;9.38;100.00;96072.97;5028444;28;20091;-74
2022/05/27 01:12:05;;;;;;;6.65;3.60;;;;;;;9.34;100.00;96077.13;5012604;28;20048;-75
2022/05/27 01:14:51;;;;;;;6.03;3.78;;;;;;;9.30;100.00;96073.38;5022785;28;20095;-75
2022/05/27 01:17:35;;;;;;;9.57;3.70;;;;;;;9.35;100.00;96083.94;5021860;28;20073;-73
2022/05/27 01:20:33;;;;;;;8.35;4.32;;;;;;;9.37;100.00;96081.88;5019363;28;20052;-73
2022/05/27 01:23:29;;;;;;;6.57;3.67;;;;;;;9.39;100.00;96079.78;4984084;28;20442;-75
2022/05/27 01:26:10;;;;;;;6.65;3.63;;;;;;;9.34;100.00;96082.38;5016687;28;20487;-75
2022/05/27 01:28:44;;;;;;;5.50;3.38;;;;;;;9.32;100.00;96082.63;5011221;28;20641;-75
2022/05/27 01:31:12;;;;;;;;;;;;;;;9.30;100.00;96079.44;5021689;28;20042;-75
2022/05/27 01:33:41;;;;;;;5.95;3.75;;;;;;;9.24;100.00;96071.72;5032490;28;20425;-75
2022/05/27 01:36:34;;;;;;;8.02;3.80;;;;;;;9.45;100.00;96073.56;5014270;28;20042;-75
2022/05/27 01:39:24;;;;;;;7.55;3.90;;;;;;;9.42;100.00;96079.28;5028660;28;20041;-75
2022/05/27 01:42:19;;;;;;;8.68;4.00;;;;;;;9.31;100.00;96072.31;5029987;28;20068;-75
2022/05/27 01:44:48;;;;;;;6.85;4.00;;;;;;;9.28;100.00;96072.81;5021535;28;20135;-73
2022/05/27 01:47:32;;;;;;;6.45;4.07;;;;;;;9.28;100.00;96070.19;5021505;28;20107;-73
2022/05/27 01:50:15;;;;;;;9.43;4.38;;;;;;;9.31;100.00;96069.69;5018374;28;20049;-73
2022/05/27 01:52:48;;;;;;;5.70;3.88;;;;;;;9.23;100.00;96064.91;5027922;28;20048;-74
2022/05/27 01:55:22;;;;;;;8.18;4.38;;;;;;;9.22;100.00;96065.94;5029138;28;20038;-74
2022/05/27 01:58:02;;;;;;;6.68;4.15;;;;;;;9.24;100.00;96066.47;5031343;28;20387;-73
2022/05/27 02:00:29;;;;;;;9.60;4.18;;;;;;;9.23;100.00;96072.78;5028291;28;20046;-72
2022/05/27 02:03:06;;;;;;;6.65;4.50;;;;;;;9.28;100.00;96075.44;5025555;28;20498;-73
2022/05/27 02:05:36;;;;;;;8.75;4.25;;;;;;;9.29;100.00;96064.69;5031723;28;20056;-73
2022/05/27 02:08:31;;;;;;;10.27;3.78;;;;;;;9.29;100.00;96058.66;5031300;28;20041;-73
2022/05/27 02:10:59;;;;;;;8.27;4.00;;;;;;;9.25;100.00;96070.69;5023037;28;20062;-72
2022/05/27 02:13:33;;;;;;;6.85;4.40;;;;;;;9.31;100.00;96067.88;5030737;28;20100;-73
2022/05/27 02:15:59;;;;;;;7.53;4.30;;;;;;;9.48;100.00;96062.53;5031764;28;20580;-73
2022/05/27 02:18:32;;;;;;;7.65;4.95;;;;;;;9.70;100.00;96064.31;5030580;28;20107;-73
2022/05/27 02:21:09;;;;;;;9.43;4.60;;;;;;;9.73;100.00;96063.03;5012522;28;20068;-73
2022/05/27 02:23:40;;;;;;;7.40;4.38;;;;;;;9.75;100.00;96066.97;5030633;28;20048;-73
2022/05/27 02:26:11;;;;;;;8.88;4.30;;;;;;;9.79;100.00;96067.28;5031844;28;20045;-69
2022/05/27 02:28:41;;;;;;;10.32;4.75;;;;;;;10.04;100.00;96064.03;5023086;28;20038;-72
2022/05/27 02:31:38;;;;;;;7.28;4.60;;;;;;;10.15;100.00;96060.44;5012234;28;20034;-72
2022/05/27 02:36:58;;;;;;;10.65;4.70;;;;;;;10.36;100.00;96060.63;5030864;28;20055;-72
2022/05/27 02:39:25;;;;;;;8.07;4.78;;;;;;;10.42;100.00;96059.59;5026299;28;20046;-72
2022/05/27 02:42:02;;;;;;;8.68;4.85;;;;;;;10.52;100.00;96064.91;5017677;28;20100;-72
2022/05/27 02:44:36;;;;;;;13.45;4.43;;;;;;;10.55;100.00;96064.41;5022586;28;20057;-73
2022/05/27 02:47:13;;;;;;;10.43;4.20;;;;;;;10.63;100.00;96059.69;5014806;28;20044;-72
2022/05/27 02:49:43;;;;;;;12.38;4.88;;;;;;;10.75;100.00;96057.66;5018845;28;20427;-72
2022/05/27 02:52:35;;;;;;;7.28;4.40;;;;;;;10.83;100.00;96054.56;5017129;28;20045;-73
2022/05/27 02:55:04;;;;;;;8.40;4.80;;;;;;;10.92;100.00;96053.00;5030547;28;20060;-73
2022/05/27 02:57:42;;;;;;;7.70;4.45;;;;;;;10.96;100.00;96058.56;5026927;28;20092;-73
2022/05/27 03:00:22;;;;;;;5.75;4.35;;;;;;;11.02;100.00;96056.69;5029502;28;20088;-72
2022/05/27 03:02:49;;;;;;;9.23;4.53;;;;;;;11.00;100.00;96064.09;5028761;28;20122;-72
2022/05/27 03:05:18;;;;;;;9.05;4.43;;;;;;;11.00;100.00;96074.63;5029699;28;20041;-73
2022/05/27 03:08:02;;;;;;;8.55;4.45;;;;;;;11.06;100.00;96063.03;5021371;28;20038;-73
2022/05/27 03:10:41;;;;;;;6.90;4.78;;;;;;;10.92;100.00;96071.44;5017769;28;20045;-72
2022/05/27 03:13:37;;;;;;;10.07;4.45;;;;;;;11.03;100.00;96068.81;5024618;28;20033;-72
2022/05/27 03:16:22;;;;;;;6.53;4.40;;;;;;;11.03;100.00;96058.28;5030395;28;20045;-73
2022/05/27 03:18:55;;;;;;;7.43;4.60;;;;;;;11.01;100.00;96065.69;5012598;28;20042;-73
2022/05/27 03:21:42;;;;;;;9.95;4.43;;;;;;;11.09;100.00;96067.78;5025452;28;20045;-73
2022/05/27 03:24:26;;;;;;;7.78;4.53;;;;;;;11.05;100.00;96066.75;5029882;28;20045;-72
2022/05/27 03:27:16;;;;;;;8.00;4.38;;;;;;;11.07;100.00;96069.91;5028322;28;20042;-72
2022/05/27 03:29:41;;;;;;;8.73;4.70;;;;;;;11.11;100.00;96070.97;5030302;28;20053;-73
2022/05/27 03:32:17;;;;;;;8.32;3.92;;;;;;;11.01;100.00;96058.56;5019937;28;20557;-73
2022/05/27 03:34:50;;;;;;;7.95;4.65;;;;;;;11.06;100.00;96068.31;5029866;28;20041;-72
2022/05/27 03:37:28;;;;;;;7.55;4.28;;;;;;;11.02;100.00;96070.69;5029316;28;20041;-73
2022/05/27 03:40:05;;;;;;;10.60;4.75;;;;;;;11.02;100.00;96073.31;5029639;28;20045;-72
2022/05/27 03:42:31;;;;;;;7.18;4.32;;;;;;;10.98;100.00;96066.19;5023171;28;20042;-72
2022/05/27 03:45:05;;;;;;;8.52;4.50;;;;;;;11.01;100.00;96066.47;5028968;28;20076;-71
2022/05/27 03:47:30;;;;;;;8.77;5.03;;;;;;;11.05;100.00;96064.88;5030036;28;20117;-73
2022/05/27 03:49:56;;;;;;;8.32;5.03;;;;;;;11.09;100.00;96071.22;5024821;28;20099;-72
2022/05/27 03:52:25;;;;;;;7.65;4.55;;;;;;;11.18;100.00;96073.38;5029412;28;20763;-73
2022/05/27 03:54:51;;;;;;;8.80;4.40;;;;;;;11.22;100.00;96067.31;5030408;28;20041;-72
2022/05/27 03:57:16;;;;;;;8.00;4.40;;;;;;;11.34;100.00;96074.22;5021513;28;20714;-73
2022/05/27 03:59:42;;;;;;;9.73;4.45;;;;;;;11.39;100.00;96076.84;5025799;28;20046;-73
2022/05/27 04:02:07;;;;;;;7.70;4.20;;;;;;;11.43;100.00;96072.63;5019159;28;20112;-72
2022/05/27 04:04:33;;;;;;;7.85;4.35;;;;;;;11.43;100.00;96070.00;5025862;28;20045;-72
2022/05/27 04:06:59;;;;;;;7.63;4.45;;;;;;;11.51;100.00;96069.50;5029772;28;20041;-73
2022/05/27 04:09:26;;;;;;;5.63;3.95;;;;;;;11.50;100.00;96067.91;5021368;28;20102;-73
2022/05/27 04:11:52;;;;;;;7.47;4.18;;;;;;;11.61;100.00;96072.13;5024023;28;20045;-72
2022/05/27 04:14:18;;;;;;;10.05;4.13;;;;;;;11.72;100.00;96069.50;5030075;28;20388;-73
2022/05/27 04:16:44;;;;;;;6.55;3.65;;;;;;;11.81;100.00;96073.22;5029149;28;20033;-72
2022/05/27 04:19:10;;;;;;;6.80;3.97;;;;;;;11.82;100.00;96064.25;5023517;28;20041;-71
2022/05/27 04:21:37;;;;;;;5.28;3.75;;;;;;;11.86;100.00;96067.94;5027115;28;20412;-71
2022/05/27 04:24:02;;;;;;;6.15;3.45;;;;;;;11.90;100.00;96076.91;5030242;28;20410;-72
2022/05/27 04:26:28;;;;;;;8.45;3.80;;;;;;;11.87;100.00;96072.16;5034244;28;20021;-70
2022/05/27 04:28:54;;;;;;;7.25;4.07;;;;;;;12.01;100.00;96076.94;5048887;28;21013;-70
2022/05/27 04:31:19;;;;;;;6.20;3.85;;;;;;;12.04;100.00;96071.94;5055140;28;20029;-69
2022/05/27 04:33:45;;;;;;;9.90;4.30;;;;;;;12.10;100.00;96072.72;5055648;28;20025;-70
2022/05/27 04:36:11;;;;;;;7.55;4.20;;;;;;;12.10;100.00;96064.81;5056108;28;20080;-69
2022/05/27 04:38:38;;;;;;;7.68;4.00;;;;;;;12.13;100.00;96065.06;5055975;28;20052;-69
2022/05/27 04:41:04;;;;;;;10.65;4.03;;;;;;;12.11;100.00;96061.09;5046780;28;20025;-69
2022/05/27 04:43:30;;;;;;;7.20;4.35;;;;;;;12.14;100.00;96065.88;5055563;28;20090;-69
2022/05/27 04:45:55;;;;;;;7.80;4.13;;;;;;;12.24;100.00;96065.03;5055506;28;20021;-69
2022/05/27 04:48:21;;;;;;;7.38;4.05;;;;;;;12.27;100.00;96064.53;5056008;28;20037;-69
2022/05/27 04:50:47;;;;;;;6.45;4.00;;;;;;;12.28;100.00;96066.91;5052823;28;20057;-69
2022/05/27 04:53:13;;;;;;;8.60;4.13;;;;;;;12.44;100.00;96061.59;5055092;28;20044;-69
2022/05/27 04:55:40;;;;;;;5.65;3.75;;;;;;;12.54;100.00;96064.22;5055440;28;20069;-69
2022/05/27 04:58:07;;;;;;;8.77;4.20;;;;;;;12.57;100.00;96058.41;5056106;28;20029;-69
2022/05/27 05:00:38;;;;;;;9.18;4.18;;;;;;;12.67;100.00;96057.59;5043776;28;20036;-69
2022/05/27 05:03:04;;;;;;;6.47;3.50;;;;;;;12.68;100.00;96058.38;5050293;28;20033;-70
2022/05/27 05:05:33;;;;;;;6.53;3.78;;;;;;;12.65;100.00;96055.19;5046822;28;20443;-72
2022/05/27 05:08:08;;;;;;;8.15;4.15;;;;;;;12.62;100.00;96050.44;5028652;28;20045;-70
2022/05/27 05:10:35;;;;;;;6.50;3.75;;;;;;;12.69;100.00;96044.13;5018139;28;20057;-71
2022/05/27 05:13:01;;;;;;;9.77;4.22;;;;;;;12.65;100.00;96049.91;5027735;28;20041;-70
2022/05/27 05:15:28;;;;;;;9.50;4.30;;;;;;;12.70;100.00;96045.69;5027906;28;20109;-71
2022/05/27 05:17:54;;;;;;;6.45;3.80;;;;;;;12.77;100.00;96051.47;5028130;28;20053;-71
2022/05/27 05:20:27;;;;;;;5.78;3.70;;;;;;;12.77;100.00;96051.47;5029006;28;20064;-71
2022/05/27 05:22:52;;;;;;;8.80;4.10;;;;;;;12.86;100.00;96055.16;5027168;28;20048;-71
2022/05/27 05:25:18;;;;;;;6.03;3.60;;;;;;;12.96;100.00;96044.53;5028216;28;20470;-72
2022/05/27 05:27:44;;;;;;;6.30;3.90;;;;;;;13.03;100.00;96048.72;5028280;28;20071;-73
2022/05/27 05:30:13;;;;;;;7.55;4.07;;;;;;;13.05;100.00;96030.75;5029209;28;20040;-73
2022/05/27 05:32:39;;;;;;;10.30;4.00;;;;;;;13.02;100.00;96041.88;5025550;28;20049;-72
2022/05/27 05:35:05;;;;;;;7.30;3.40;;;;;;;13.07;100.00;96033.91;5031103;28;20388;-71
2022/05/27 05:37:31;;;;;;;6.78;3.97;;;;;;;13.12;100.00;96042.59;5032857;28;20041;-70
2022/05/27 05:39:57;;;;;;;8.57;3.70;;;;;;;13.27;100.00;96039.06;5012358;28;20104;-71
2022/05/27 05:42:22;;;;;;;5.13;3.42;;;;;;;13.36;100.00;96043.81;5028461;28;20229;-73
2022/05/27 05:44:48;;;;;;;5.72;3.33;;;;;;;13.49;98.86;96051.16;5030852;28;20471;-71
2022/05/27 05:47:14;;;;;;;7.55;4.13;;;;;;;13.49;99.03;96040.59;5031244;28;20565;-72
2022/05/27 05:49:41;;;;;;;6.35;3.50;;;;;;;13.57;97.53;96037.34;5030915;28;20064;-72
2022/05/27 05:52:06;;;;;;;7.50;3.75;;;;;;;13.58;98.16;96038.94;5021602;28;20473;-72
2022/05/27 05:54:32;;;;;;;7.30;3.83;;;;;;;13.71;97.58;96047.31;5026346;28;20045;-71
2022/05/27 05:57:02;;;;;;;6.25;3.60;;;;;;;13.77;96.89;96048.84;5030403;28;20045;-74
2022/05/27 05:59:30;;;;;;;5.13;3.35;;;;;;;13.87;96.50;96046.13;5026839;28;20530;-71
2022/05/27 06:01:56;;;;;;;7.30;3.38;;;;;;;13.91;96.13;96036.56;5018752;28;20403;-71
2022/05/27 06:04:22;;;;;;;7.22;3.38;;;;;;;13.81;94.68;96034.78;5030323;28;20052;-72
2022/05/27 06:06:48;;;;;;;7.28;3.28;;;;;;;13.90;94.24;96040.28;5032320;28;20049;-72
2022/05/27 06:09:13;;;;;;;5.25;3.05;;;;;;;13.98;94.52;96042.34;5031947;28;20499;-72
2022/05/27 06:11:39;;;;;;;5.55;3.40;;;;;;;14.02;93.77;96048.66;5016320;28;20038;-74
2022/05/27 06:14:05;;;;;;;6.57;3.90;;;;;;;14.06;94.14;96045.44;5030291;28;20120;-72
2022/05/27 06:16:32;;;;;;;7.43;3.88;;;;;;;14.23;93.97;96037.88;5033876;28;20422;-71
2022/05/27 06:18:58;;;;;;;7.05;3.40;;;;;;;14.24;92.65;96034.16;5031039;28;20212;-72
2022/05/27 06:21:26;;;;;;;9.60;3.58;;;;;;;14.36;90.34;96036.44;5033429;28;20038;-73
2022/05/27 06:23:51;;;;;;;8.20;3.30;;;;;;;14.46;90.89;96030.25;5034250;28;20056;-73
2022/05/27 06:26:17;;;;;;;20.80;6.45;;;;;;;14.52;90.90;96037.06;5032384;28;20042;-74
2022/05/27 06:34:26;;;;;;;12.85;4.57;;;;;;;14.73;88.72;96035.78;5032308;28;20034;-77
2022/05/27 06:37:18;;;;;;;10.52;4.05;;;;;;;14.86;87.51;96022.94;5032916;28;20048;-76
2022/05/27 06:39:44;;;;;;;10.45;4.82;;;;;;;14.98;87.48;96025.94;5032307;28;20067;-74
2022/05/27 06:42:12;;;;;;;9.52;4.00;;;;;;;15.06;87.45;96027.97;5019676;28;20046;-74
2022/05/27 06:44:38;;;;;;;6.18;3.28;;;;;;;15.18;86.64;96030.19;5029592;28;20041;-74
2022/05/27 06:47:05;;;;;;;7.82;3.25;;;;;;;15.14;86.28;96023.09;5025906;28;20446;-76
2022/05/27 06:49:32;;;;;;;8.07;3.40;;;;;;;15.10;85.17;96022.09;5028859;28;20102;-75
2022/05/27 06:51:58;;;;;;;9.43;3.58;;;;;;;15.10;87.34;96024.75;5029475;28;20109;-73
2022/05/27 06:54:24;;;;;;;6.90;3.35;;;;;;;15.18;86.51;96029.41;5027884;28;20168;-75
2022/05/27 06:56:52;;;;;;;4.78;3.22;;;;;;;15.32;86.15;96029.50;5024346;28;20046;-74
2022/05/27 06:59:19;;;;;;;5.88;3.10;;;;;;;15.50;85.07;96025.25;5020029;28;20069;-74
2022/05/27 07:01:45;;;;;;;14.43;3.50;;;;;;;15.59;80.58;96018.25;5030431;28;20044;-73
2022/05/27 07:04:11;;;;;;;8.45;3.10;;;;;;;15.54;80.79;96013.81;5031253;28;20045;-73
2022/05/27 07:06:43;;;;;;;8.23;2.90;;;;;;;15.39;80.33;96014.81;5031285;28;20407;-72
2022/05/27 07:09:31;;;;;;;6.47;2.92;;;;;;;15.67;80.50;96020.22;5029000;28;20048;-73
2022/05/27 07:11:57;;;;;;;10.25;3.15;;;;;;;15.87;78.54;96002.44;5030091;28;20083;-74
2022/05/27 07:14:23;;;;;;;5.60;2.95;;;;;;;15.90;77.31;96001.84;5030592;28;20038;-74
2022/05/27 07:16:49;;;;;;;4.93;2.70;;;;;;;15.86;79.02;96000.84;5028880;28;20045;-75
2022/05/27 07:19:17;;;;;;;6.45;2.97;;;;;;;15.98;77.58;96003.84;5012483;28;20046;-76
2022/05/27 07:21:44;;;;;;;7.57;3.08;;;;;;;16.17;76.28;96000.34;5012274;28;20468;-74
2022/05/27 07:24:13;;;;;;;8.80;2.92;;;;;;;16.15;76.71;95997.97;5012137;28;20042;-74
2022/05/27 07:26:40;;;;;;;7.88;3.03;;;;;;;16.16;76.02;95993.44;5012632;28;20041;-75
2022/05/27 07:29:07;;;;;;;7.75;2.75;;;;;;;16.39;77.42;95986.38;5011990;28;20045;-75
2022/05/27 07:31:35;;;;;;;10.02;2.90;;;;;;;16.24;75.53;95984.81;5012890;28;20504;-74
2022/05/27 07:34:01;;;;;;;6.20;2.80;;;;;;;16.50;74.69;95987.00;5012190;28;20053;-77
2022/05/27 07:36:27;;;;;;;5.70;2.85;;;;;;;16.72;73.90;95984.44;5027094;28;20066;-75
2022/05/27 07:38:52;;;;;;;7.47;2.97;;;;;;;16.76;72.64;95985.38;5030029;28;20045;-74
2022/05/27 07:41:20;;;;;;;4.88;2.50;;;;;;;16.82;71.67;95993.28;5026739;28;20100;-75
2022/05/27 07:43:47;;;;;;;11.73;3.22;;;;;;;16.97;70.63;95985.00;5011829;28;20056;-74
2022/05/27 07:46:13;;;;;;;6.57;2.63;;;;;;;16.94;69.88;95985.63;5012046;28;20038;-74
2022/05/27 07:48:39;;;;;;;7.40;2.70;;;;;;;16.93;69.95;95978.72;5011405;28;20095;-75
2022/05/27 07:51:05;;;;;;;5.18;2.60;;;;;;;16.94;70.97;95974.97;5011707;28;20458;-75
2022/05/27 07:53:32;;;;;;;7.00;2.80;;;;;;;17.00;69.47;95967.69;5010923;28;20049;-76
2022/05/27 07:55:58;;;;;;;14.57;2.65;;;;;;;16.90;69.50;95966.81;5028388;28;20088;-75
2022/05/27 07:58:23;;;;;;;10.70;2.72;;;;;;;16.94;70.09;95974.97;5025916;28;20070;-74
2022/05/27 08:00:49;;;;;;;4.30;2.55;;;;;;;17.13;70.46;95966.84;5011432;28;20053;-75
2022/05/27 08:03:17;;;;;;;7.65;2.90;;;;;;;17.21;70.78;95962.69;5011317;28;20042;-75
2022/05/27 08:05:43;;;;;;;5.05;2.90;;;;;;;17.29;71.79;95959.31;5026832;28;20128;-74
2022/05/27 08:08:08;;;;;;;5.68;2.70;;;;;;;17.26;70.94;95960.69;5010933;28;20050;-75
2022/05/27 08:10:36;;;;;;;9.27;3.30;;;;;;;17.40;69.12;95950.03;5010996;28;20042;-73
2022/05/27 08:13:02;;;;;;;5.45;2.72;;;;;;;17.36;70.26;95949.03;5011507;28;20125;-75
2022/05/27 08:15:28;;;;;;;6.20;3.08;;;;;;;17.57;69.51;95959.19;5010096;28;20058;-74
2022/05/27 08:17:54;;;;;;;6.40;2.83;;;;;;;17.60;69.03;95958.63;5011097;28;20122;-75
2022/05/27 08:20:23;;;;;;;7.82;2.97;;;;;;;17.69;69.15;95956.78;5011435;28;20041;-74
2022/05/27 08:22:50;;;;;;;6.88;3.10;;;;;;;17.51;69.50;95955.09;5012133;28;20045;-75
2022/05/27 08:25:17;;;;;;;6.82;3.03;;;;;;;17.33;70.23;95957.63;5010314;28;20041;-74
2022/05/27 08:27:43;;;;;;;7.30;3.08;;;;;;;17.39;70.81;95953.75;5011466;28;20042;-75
2022/05/27 08:30:11;;;;;;;7.45;3.00;;;;;;;17.48;70.19;95951.97;5026665;28;20049;-74
2022/05/27 08:32:37;;;;;;;7.50;3.03;;;;;;;17.79;68.87;95961.84;5012106;28;20140;-74
2022/05/27 08:38:07;;;;;;;6.80;3.08;;;;;;;17.77;68.58;95957.91;5031105;28;20107;-75
2022/05/27 08:41:14;;;;;;;5.57;2.90;;;;;;;17.90;67.93;95956.25;5025801;28;20034;-75
2022/05/27 08:43:55;;;;;;;8.48;3.15;;;;;;;18.04;67.19;95962.31;4999510;28;20062;-76
2022/05/27 08:46:30;;;;;;;6.35;2.83;;;;;;;17.94;66.89;95947.41;5011303;28;20037;-76
2022/05/27 08:49:01;;;;;;;11.30;3.53;;;;;;;18.02;66.71;95948.53;5009415;28;20049;-75
2022/05/27 08:51:36;;;;;;;9.45;3.10;;;;;;;18.11;67.88;95951.25;5021997;28;20065;-75
2022/05/27 08:54:04;;;;;;;;;;;;;;;18.25;66.41;95940.50;5016204;28;20049;-76
2022/05/27 08:59:34;;;;;;;6.63;2.83;;;;;;;18.10;67.06;95945.13;5010615;28;20042;-77
2022/05/27 09:02:29;;;;;;;6.15;3.08;;;;;;;18.09;67.93;95922.25;5009706;28;20041;-76
2022/05/27 09:05:51;;;;;;;5.45;3.35;;;;;;;18.36;68.91;95933.78;5021544;28;20115;-77
2022/05/27 09:08:19;;;;;;;11.35;3.45;;;;;;;18.89;66.52;95931.25;5026371;28;20053;-76
2022/05/27 09:11:11;;;;;;;6.20;3.08;;;;;;;18.65;65.87;95938.56;5030518;28;20042;-76
2022/05/27 09:13:45;;;;;;;7.40;3.20;;;;;;;18.73;65.43;95929.00;5023000;28;20045;-77
2022/05/27 09:16:28;;;;;;;4.95;3.10;;;;;;;18.67;65.16;95922.25;5035566;28;20038;-77
2022/05/27 09:19:12;;;;;;;7.32;3.20;;;;;;;18.62;64.24;95933.84;5026051;28;20042;-76
2022/05/27 09:21:47;;;;;;;6.72;3.20;;;;;;;18.64;65.38;95921.00;5015432;28;20046;-76
2022/05/27 09:24:30;;;;;;;10.88;3.03;;;;;;;18.65;64.91;95919.13;5013696;28;20053;-76
2022/05/27 09:27:06;;;;;;;6.90;3.42;;;;;;;18.61;66.08;95926.19;5015103;28;20492;-76
2022/05/27 09:29:54;;;;;;;6.47;2.85;;;;;;;19.05;63.02;95921.72;5014248;28;20038;-74
2022/05/27 09:32:47;;;;;;;5.45;2.88;;;;;;;19.09;64.02;95914.63;5014995;28;20125;-75
2022/05/27 09:35:24;;;;;;;5.20;2.70;;;;;;;19.12;62.15;95914.03;5010845;28;20711;-75
2022/05/27 09:37:54;;;;;;;7.10;2.50;;;;;;;19.08;63.98;95915.75;5014546;28;20045;-74
2022/05/27 09:40:31;;;;;;;6.82;2.97;;;;;;;19.28;63.91;95918.88;5033564;28;20597;-76
2022/05/27 09:43:12;;;;;;;7.80;3.05;;;;;;;19.07;62.92;95911.50;5034189;28;20041;-78
2022/05/27 09:45:39;;;;;;;5.47;2.67;;;;;;;19.48;63.78;95915.56;5032492;28;20060;-76
2022/05/27 09:48:06;;;;;;;7.03;2.90;;;;;;;19.46;61.01;95907.06;5017203;28;20041;-76
2022/05/27 09:50:40;;;;;;;5.78;2.67;;;;;;;19.69;63.06;95909.56;5013616;28;20037;-76
2022/05/27 09:53:07;;;;;;;8.15;3.05;;;;;;;19.68;60.86;95919.47;5012935;28;20045;-76
2022/05/27 09:55:47;;;;;;;8.95;3.20;;;;;;;19.65;61.06;95898.75;5017720;28;20128;-74
2022/05/27 09:58:13;;;;;;;7.75;3.20;;;;;;;19.41;63.18;95909.94;5033328;28;20038;-75
2022/05/27 10:00:44;;;;;;;6.13;3.20;;;;;;;19.43;63.35;95897.03;5030435;28;20038;-76
2022/05/27 10:03:39;;;;;;;5.93;2.88;;;;;;;19.69;61.46;95894.31;5014032;28;20116;-76
2022/05/27 10:06:19;;;;;;;6.03;2.53;;;;;;;19.87;60.61;95895.06;5012668;28;20456;-76
2022/05/27 10:08:59;;;;;;;6.95;3.20;;;;;;;19.97;59.90;95903.84;5013630;28;20038;-76
2022/05/27 10:11:34;;;;;;;7.35;3.30;;;;;;;20.01;58.82;95899.41;5012433;28;20042;-76
2022/05/27 10:14:06;;;;;;;4.40;2.45;;;;;;;20.39;58.32;95888.72;5014038;28;20034;-76
2022/05/27 10:16:32;;;;;;;4.88;2.50;;;;;;;20.70;58.17;95886.81;5013567;28;20062;-76
2022/05/27 10:19:24;;;;;;;6.40;3.20;;;;;;;20.67;58.54;95882.13;5028610;28;20546;-76
2022/05/27 10:22:01;;;;;;;6.95;3.03;;;;;;;20.35;58.33;95876.31;5032948;28;20041;-76
2022/05/27 10:24:29;;;;;;;4.70;2.75;;;;;;;20.75;58.23;95889.31;5034183;28;20517;-76
2022/05/27 10:27:17;;;;;;;5.78;2.60;;;;;;;20.93;56.13;95889.97;5031936;28;20053;-76
2022/05/27 10:29:59;;;;;;;6.60;2.72;;;;;;;20.80;55.44;95891.78;5033165;28;20139;-75
2022/05/27 10:32:43;;;;;;;6.07;2.90;;;;;;;21.34;55.05;95887.59;5015338;28;20046;-73
2022/05/27 10:35:31;;;;;;;5.88;2.72;;;;;;;21.71;53.33;95885.06;5012751;28;20528;-73
2022/05/27 10:38:17;;;;;;;6.30;2.50;;;;;;;21.75;52.61;95876.00;5013304;28;20049;-76
2022/05/27 10:41:05;;;;;;;5.65;2.42;;;;;;;22.05;52.07;95877.72;5013395;28;20049;-76
2022/05/27 10:43:55;;;;;;;7.40;2.60;;;;;;;22.21;50.88;95869.78;5013596;28;20052;-76
2022/05/27 10:46:30;;;;;;;3.95;2.35;;;;;;;21.54;52.34;95870.72;5012993;28;20042;-76
2022/05/27 10:49:01;;;;;;;5.93;2.30;;;;;;;22.01;51.32;95866.09;5013098;28;20100;-76
2022/05/27 10:51:48;;;;;;;6.45;2.50;;;;;;;22.39;51.95;95865.00;5032822;28;20037;-77
2022/05/27 10:54:30;;;;;;;5.15;2.40;;;;;;;22.61;52.14;95863.75;5033180;28;20473;-76
2022/05/27 11:03:20;;;;;;;8.32;2.83;;;;;;;23.13;49.96;95854.09;5013157;28;20403;-75
2022/05/27 11:06:05;;;;;;;8.57;2.45;;;;;;;22.52;49.42;95858.50;5013440;28;20504;-76
2022/05/27 11:08:31;;;;;;;;;;;;;;;23.57;47.87;95854.13;5014434;28;20441;-77
2022/05/27 11:11:00;;;;;;;6.43;2.40;;;;;;;23.23;48.03;95837.53;5025198;28;19928;-75
2022/05/27 11:16:46;;;;;;;4.93;2.50;;;;;;;22.41;50.53;95844.00;5012857;28;20042;-75
2022/05/27 11:19:43;;;;;;;8.98;2.53;;;;;;;23.61;49.67;95835.41;5013165;28;20499;-75
2022/05/27 11:22:26;;;;;;;8.07;3.05;;;;;;;23.59;49.46;95833.06;5012823;28;20041;-75
2022/05/27 11:25:01;;;;;;;7.30;2.63;;;;;;;22.84;50.33;95839.88;5012723;28;20133;-75
2022/05/27 11:27:48;;;;;;;9.30;2.92;;;;;;;22.38;51.01;95833.94;5011110;28;20520;-75
2022/05/27 11:30:19;;;;;;;5.32;2.40;;;;;;;23.32;49.97;95835.47;5021487;28;20041;-75
2022/05/27 11:32:45;;;;;;;6.88;2.42;;;;;;;23.84;48.02;95840.97;5028678;28;20465;-75
2022/05/27 11:35:10;;;;;;;4.82;2.22;;;;;;;24.26;47.34;95826.97;5012721;28;20042;-74
2022/05/27 11:38:01;;;;;;;5.82;2.30;;;;;;;24.01;47.95;95811.06;5011479;28;20042;-76
2022/05/27 11:40:45;;;;;;;7.18;2.45;;;;;;;24.50;45.92;95819.81;5012396;28;20048;-74
2022/05/27 11:43:26;;;;;;;10.15;2.70;;;;;;;24.22;45.81;95809.97;5012585;28;20050;-77
2022/05/27 11:45:58;;;;;;;7.30;2.40;;;;;;;23.15;48.71;95814.28;5011298;28;20041;-76
2022/05/27 11:48:58;;;;;;;4.95;2.40;;;;;;;23.41;48.58;95808.44;5011858;28;20056;-76
2022/05/27 11:51:23;;;;;;;6.25;2.30;;;;;;;22.47;50.54;95807.81;5012054;28;20050;-75
2022/05/27 11:54:16;;;;;;;7.43;2.83;;;;;;;23.48;47.90;95810.53;5012032;28;20096;-75
2022/05/27 11:57:09;;;;;;;4.43;2.40;;;;;;;24.82;46.91;95800.91;5012098;28;20496;-75
2022/05/27 11:59:40;;;;;;;5.50;2.22;;;;;;;24.90;46.17;95783.75;5011247;28;20042;-75
2022/05/27 12:02:24;;;;;;;6.15;2.35;;;;;;;24.50;45.49;95803.69;5011632;28;20103;-75
2022/05/27 12:05:05;;;;;;;4.82;2.30;;;;;;;25.33;43.49;95773.00;5012142;28;20433;-76
2022/05/27 12:07:42;;;;;;;5.35;2.30;;;;;;;23.82;45.78;95778.72;5011670;28;20038;-75
2022/05/27 12:10:17;;;;;;;4.68;2.33;;;;;;;23.76;45.57;95783.59;5011040;28;20060;-74
2022/05/27 12:12:49;;;;;;;4.78;2.28;;;;;;;24.55;45.27;95773.78;5010585;28;20045;-74
2022/05/27 12:15:26;;;;;;;6.60;2.33;;;;;;;25.54;42.87;95772.59;5011301;28;20038;-75
2022/05/27 12:17:54;;;;;;;5.00;2.00;;;;;;;25.49;40.83;95764.81;5013292;28;20488;-75
2022/05/27 12:20:31;;;;;;;3.97;2.08;;;;;;;25.38;41.11;95760.00;5030671;28;20041;-75